sensor_id;sensor_type;location;lat;lon;timestamp;P1;durP1;ratioP1;P2;durP2;ratioP2
72427;SDS011;60419;48.880;18.036;2022-10-22T00:00:27;22.17;;;11.93;;
72427;SDS011;60419;48.880;18.036;2022-10-22T00:03:12;18.38;;;11.43;;
72427;SDS011;60419;48.880;18.036;2022-10-22T00:05:57;17.35;;;10.68;;
72427;SDS011;60419;48.880;18.036;2022-10-22T00:08:43;18.52;;;10.68;;
72427;SDS011;60419;48.880;18.036;2022-10-22T00:11:28;17.38;;;11.73;;
72427;SDS011;60419;48.880;18.036;2022-10-22T00:14:13;21.98;;;12.85;;
72427;SDS011;60419;48.880;18.036;2022-10-22T00:17:00;17.08;;;10.77;;
72427;SDS011;60419;48.880;18.036;2022-10-22T00:19:45;20.30;;;11.40;;
72427;SDS011;60419;48.880;18.036;2022-10-22T00:22:30;20.80;;;12.07;;
72427;SDS011;60419;48.880;18.036;2022-10-22T00:25:16;18.23;;;11.25;;
72427;SDS011;60419;48.880;18.036;2022-10-22T00:28:01;17.20;;;10.55;;
72427;SDS011;60419;48.880;18.036;2022-10-22T00:30:47;15.40;;;10.10;;
72427;SDS011;60419;48.880;18.036;2022-10-22T00:33:40;15.40;;;8.85;;
72427;SDS011;60419;48.880;18.036;2022-10-22T00:36:26;16.90;;;9.48;;
72427;SDS011;60419;48.880;18.036;2022-10-22T00:39:11;17.38;;;9.32;;
72427;SDS011;60419;48.880;18.036;2022-10-22T00:42:00;16.80;;;9.93;;
72427;SDS011;60419;48.880;18.036;2022-10-22T00:47:51;17.20;;;10.23;;
72427;SDS011;60419;48.880;18.036;2022-10-22T00:50:42;16.48;;;10.07;;
72427;SDS011;60419;48.880;18.036;2022-10-22T00:53:33;15.57;;;9.85;;
72427;SDS011;60419;48.880;18.036;2022-10-22T00:56:23;14.80;;;9.88;;
72427;SDS011;60419;48.880;18.036;2022-10-22T00:59:08;15.80;;;10.40;;
72427;SDS011;60419;48.880;18.036;2022-10-22T01:01:57;14.07;;;9.43;;
72427;SDS011;60419;48.880;18.036;2022-10-22T01:04:42;18.58;;;10.10;;
72427;SDS011;60419;48.880;18.036;2022-10-22T01:07:27;15.25;;;10.13;;
72427;SDS011;60419;48.880;18.036;2022-10-22T01:13:46;14.05;;;9.15;;
72427;SDS011;60419;48.880;18.036;2022-10-22T01:16:58;19.05;;;9.88;;
72427;SDS011;60419;48.880;18.036;2022-10-22T01:26:27;17.92;;;11.85;;
72427;SDS011;60419;48.880;18.036;2022-10-22T01:32:42;18.50;;;11.75;;
72427;SDS011;60419;48.880;18.036;2022-10-22T01:35:27;19.70;;;11.68;;
72427;SDS011;60419;48.880;18.036;2022-10-22T01:38:17;16.63;;;11.10;;
72427;SDS011;60419;48.880;18.036;2022-10-22T01:41:06;18.23;;;11.55;;
72427;SDS011;60419;48.880;18.036;2022-10-22T01:43:52;18.25;;;11.63;;
72427;SDS011;60419;48.880;18.036;2022-10-22T01:46:38;19.73;;;11.60;;
72427;SDS011;60419;48.880;18.036;2022-10-22T01:49:26;19.77;;;11.88;;
72427;SDS011;60419;48.880;18.036;2022-10-22T01:55:28;16.70;;;10.88;;
72427;SDS011;60419;48.880;18.036;2022-10-22T02:07:42;17.20;;;10.93;;
72427;SDS011;60419;48.880;18.036;2022-10-22T02:10:31;17.92;;;10.38;;
72427;SDS011;60419;48.880;18.036;2022-10-22T02:13:17;18.73;;;11.93;;
72427;SDS011;60419;48.880;18.036;2022-10-22T02:16:09;17.77;;;10.95;;
72427;SDS011;60419;48.880;18.036;2022-10-22T02:21:47;17.35;;;11.60;;
72427;SDS011;60419;48.880;18.036;2022-10-22T02:24:33;19.73;;;12.35;;
72427;SDS011;60419;48.880;18.036;2022-10-22T02:30:07;19.23;;;11.80;;
72427;SDS011;60419;48.880;18.036;2022-10-22T02:36:21;21.50;;;11.90;;
72427;SDS011;60419;48.880;18.036;2022-10-22T02:39:08;17.63;;;11.05;;
72427;SDS011;60419;48.880;18.036;2022-10-22T02:41:56;18.58;;;12.05;;
72427;SDS011;60419;48.880;18.036;2022-10-22T02:44:42;20.95;;;12.10;;
72427;SDS011;60419;48.880;18.036;2022-10-22T02:47:27;20.70;;;11.75;;
72427;SDS011;60419;48.880;18.036;2022-10-22T02:50:13;18.40;;;11.98;;
72427;SDS011;60419;48.880;18.036;2022-10-22T02:52:58;18.48;;;11.07;;
72427;SDS011;60419;48.880;18.036;2022-10-22T02:55:44;22.13;;;13.93;;
72427;SDS011;60419;48.880;18.036;2022-10-22T02:58:29;22.90;;;13.05;;
72427;SDS011;60419;48.880;18.036;2022-10-22T03:01:14;20.55;;;13.77;;
72427;SDS011;60419;48.880;18.036;2022-10-22T03:04:00;26.27;;;13.02;;
72427;SDS011;60419;48.880;18.036;2022-10-22T03:06:45;21.10;;;13.35;;
72427;SDS011;60419;48.880;18.036;2022-10-22T03:09:32;20.77;;;13.05;;
72427;SDS011;60419;48.880;18.036;2022-10-22T03:12:18;19.77;;;12.90;;
72427;SDS011;60419;48.880;18.036;2022-10-22T03:15:03;19.85;;;13.00;;
72427;SDS011;60419;48.880;18.036;2022-10-22T03:17:49;18.08;;;12.27;;
72427;SDS011;60419;48.880;18.036;2022-10-22T03:20:34;20.80;;;12.23;;
72427;SDS011;60419;48.880;18.036;2022-10-22T03:23:20;20.52;;;12.63;;
72427;SDS011;60419;48.880;18.036;2022-10-22T03:26:05;21.05;;;12.60;;
72427;SDS011;60419;48.880;18.036;2022-10-22T03:28:52;24.00;;;12.95;;
72427;SDS011;60419;48.880;18.036;2022-10-22T03:31:38;18.48;;;12.63;;
72427;SDS011;60419;48.880;18.036;2022-10-22T03:34:23;21.10;;;11.90;;
72427;SDS011;60419;48.880;18.036;2022-10-22T03:37:09;19.88;;;12.80;;
72427;SDS011;60419;48.880;18.036;2022-10-22T03:39:55;21.98;;;13.05;;
72427;SDS011;60419;48.880;18.036;2022-10-22T03:42:40;23.38;;;13.13;;
72427;SDS011;60419;48.880;18.036;2022-10-22T03:45:26;19.73;;;11.98;;
72427;SDS011;60419;48.880;18.036;2022-10-22T03:48:11;19.10;;;12.05;;
72427;SDS011;60419;48.880;18.036;2022-10-22T03:50:57;22.48;;;13.43;;
72427;SDS011;60419;48.880;18.036;2022-10-22T03:53:42;20.30;;;12.65;;
72427;SDS011;60419;48.880;18.036;2022-10-22T03:56:28;22.88;;;12.80;;
72427;SDS011;60419;48.880;18.036;2022-10-22T03:59:14;17.88;;;11.25;;
72427;SDS011;60419;48.880;18.036;2022-10-22T04:01:59;19.10;;;12.77;;
72427;SDS011;60419;48.880;18.036;2022-10-22T04:04:45;16.80;;;11.15;;
72427;SDS011;60419;48.880;18.036;2022-10-22T04:07:31;20.58;;;11.80;;
72427;SDS011;60419;48.880;18.036;2022-10-22T04:10:16;20.98;;;12.00;;
72427;SDS011;60419;48.880;18.036;2022-10-22T04:13:01;21.45;;;11.38;;
72427;SDS011;60419;48.880;18.036;2022-10-22T04:15:47;20.50;;;12.07;;
72427;SDS011;60419;48.880;18.036;2022-10-22T04:18:32;23.83;;;11.80;;
72427;SDS011;60419;48.880;18.036;2022-10-22T04:21:18;24.05;;;12.75;;
72427;SDS011;60419;48.880;18.036;2022-10-22T04:24:04;20.67;;;12.18;;
72427;SDS011;60419;48.880;18.036;2022-10-22T04:26:49;21.42;;;12.43;;
72427;SDS011;60419;48.880;18.036;2022-10-22T04:29:35;19.40;;;12.48;;
72427;SDS011;60419;48.880;18.036;2022-10-22T04:32:20;23.40;;;12.00;;
72427;SDS011;60419;48.880;18.036;2022-10-22T04:35:05;20.10;;;11.98;;
72427;SDS011;60419;48.880;18.036;2022-10-22T04:37:51;18.42;;;11.30;;
72427;SDS011;60419;48.880;18.036;2022-10-22T04:40:36;20.17;;;12.25;;
72427;SDS011;60419;48.880;18.036;2022-10-22T04:43:22;20.33;;;12.18;;
72427;SDS011;60419;48.880;18.036;2022-10-22T04:46:07;19.35;;;12.48;;
72427;SDS011;60419;48.880;18.036;2022-10-22T04:48:54;20.27;;;12.45;;
72427;SDS011;60419;48.880;18.036;2022-10-22T04:51:39;23.00;;;13.00;;
72427;SDS011;60419;48.880;18.036;2022-10-22T04:54:24;21.08;;;12.55;;
72427;SDS011;60419;48.880;18.036;2022-10-22T04:57:10;20.50;;;12.40;;
72427;SDS011;60419;48.880;18.036;2022-10-22T04:59:55;20.95;;;13.05;;
72427;SDS011;60419;48.880;18.036;2022-10-22T05:02:40;19.52;;;11.85;;
72427;SDS011;60419;48.880;18.036;2022-10-22T05:05:28;19.52;;;12.70;;
72427;SDS011;60419;48.880;18.036;2022-10-22T05:08:13;21.92;;;12.32;;
72427;SDS011;60419;48.880;18.036;2022-10-22T05:10:59;19.58;;;11.98;;
72427;SDS011;60419;48.880;18.036;2022-10-22T05:13:44;25.58;;;13.45;;
72427;SDS011;60419;48.880;18.036;2022-10-22T05:16:31;21.65;;;13.15;;
72427;SDS011;60419;48.880;18.036;2022-10-22T05:19:19;31.17;;;18.73;;
72427;SDS011;60419;48.880;18.036;2022-10-22T05:22:07;21.80;;;12.93;;
72427;SDS011;60419;48.880;18.036;2022-10-22T05:24:53;22.55;;;12.35;;
72427;SDS011;60419;48.880;18.036;2022-10-22T05:27:38;20.92;;;12.88;;
72427;SDS011;60419;48.880;18.036;2022-10-22T05:30:23;21.48;;;13.00;;
72427;SDS011;60419;48.880;18.036;2022-10-22T05:33:09;22.33;;;13.13;;
72427;SDS011;60419;48.880;18.036;2022-10-22T05:35:54;19.10;;;11.55;;
72427;SDS011;60419;48.880;18.036;2022-10-22T05:38:40;20.67;;;12.57;;
72427;SDS011;60419;48.880;18.036;2022-10-22T05:41:25;20.25;;;12.77;;
72427;SDS011;60419;48.880;18.036;2022-10-22T05:44:11;19.90;;;12.27;;
72427;SDS011;60419;48.880;18.036;2022-10-22T05:46:57;25.65;;;13.68;;
72427;SDS011;60419;48.880;18.036;2022-10-22T05:49:43;22.88;;;13.50;;
72427;SDS011;60419;48.880;18.036;2022-10-22T05:52:28;21.13;;;13.13;;
72427;SDS011;60419;48.880;18.036;2022-10-22T05:55:13;26.85;;;15.07;;
72427;SDS011;60419;48.880;18.036;2022-10-22T05:57:59;25.85;;;14.07;;
72427;SDS011;60419;48.880;18.036;2022-10-22T06:00:44;27.63;;;14.52;;
72427;SDS011;60419;48.880;18.036;2022-10-22T06:03:30;20.92;;;13.80;;
72427;SDS011;60419;48.880;18.036;2022-10-22T06:09:12;19.92;;;12.57;;
72427;SDS011;60419;48.880;18.036;2022-10-22T06:12:01;21.55;;;12.18;;
72427;SDS011;60419;48.880;18.036;2022-10-22T06:14:46;19.98;;;12.75;;
72427;SDS011;60419;48.880;18.036;2022-10-22T06:17:32;23.83;;;11.82;;
72427;SDS011;60419;48.880;18.036;2022-10-22T06:20:17;22.10;;;13.02;;
72427;SDS011;60419;48.880;18.036;2022-10-22T06:23:02;28.33;;;13.07;;
72427;SDS011;60419;48.880;18.036;2022-10-22T06:25:57;20.40;;;13.63;;
72427;SDS011;60419;48.880;18.036;2022-10-22T06:28:43;21.63;;;12.40;;
72427;SDS011;60419;48.880;18.036;2022-10-22T06:31:29;21.77;;;12.40;;
72427;SDS011;60419;48.880;18.036;2022-10-22T06:34:20;21.38;;;12.18;;
72427;SDS011;60419;48.880;18.036;2022-10-22T06:37:05;22.40;;;11.93;;
72427;SDS011;60419;48.880;18.036;2022-10-22T06:39:51;21.73;;;12.93;;
72427;SDS011;60419;48.880;18.036;2022-10-22T06:42:36;19.58;;;12.15;;
72427;SDS011;60419;48.880;18.036;2022-10-22T06:45:22;22.08;;;13.00;;
72427;SDS011;60419;48.880;18.036;2022-10-22T06:48:07;21.92;;;13.60;;
72427;SDS011;60419;48.880;18.036;2022-10-22T06:50:52;21.02;;;12.38;;
72427;SDS011;60419;48.880;18.036;2022-10-22T06:53:38;19.95;;;13.27;;
72427;SDS011;60419;48.880;18.036;2022-10-22T06:56:25;28.63;;;16.23;;
72427;SDS011;60419;48.880;18.036;2022-10-22T06:59:12;26.88;;;14.95;;
72427;SDS011;60419;48.880;18.036;2022-10-22T07:01:58;19.48;;;12.20;;
72427;SDS011;60419;48.880;18.036;2022-10-22T07:04:43;21.45;;;11.80;;
72427;SDS011;60419;48.880;18.036;2022-10-22T07:07:28;21.65;;;12.35;;
72427;SDS011;60419;48.880;18.036;2022-10-22T07:10:14;24.38;;;13.02;;
72427;SDS011;60419;48.880;18.036;2022-10-22T07:12:59;19.83;;;12.40;;
72427;SDS011;60419;48.880;18.036;2022-10-22T07:15:45;21.77;;;12.60;;
72427;SDS011;60419;48.880;18.036;2022-10-22T07:18:36;22.67;;;13.57;;
72427;SDS011;60419;48.880;18.036;2022-10-22T07:21:22;20.13;;;12.68;;
72427;SDS011;60419;48.880;18.036;2022-10-22T07:24:10;21.90;;;12.13;;
72427;SDS011;60419;48.880;18.036;2022-10-22T07:26:55;19.00;;;12.40;;
72427;SDS011;60419;48.880;18.036;2022-10-22T07:29:40;20.17;;;12.30;;
72427;SDS011;60419;48.880;18.036;2022-10-22T07:32:26;19.20;;;11.50;;
72427;SDS011;60419;48.880;18.036;2022-10-22T07:35:11;25.90;;;13.02;;
72427;SDS011;60419;48.880;18.036;2022-10-22T07:37:57;20.05;;;12.60;;
72427;SDS011;60419;48.880;18.036;2022-10-22T07:40:42;23.50;;;13.95;;
72427;SDS011;60419;48.880;18.036;2022-10-22T07:43:27;21.45;;;13.20;;
72427;SDS011;60419;48.880;18.036;2022-10-22T07:46:13;23.15;;;13.45;;
72427;SDS011;60419;48.880;18.036;2022-10-22T07:48:58;21.98;;;13.07;;
72427;SDS011;60419;48.880;18.036;2022-10-22T07:51:43;24.20;;;13.07;;
72427;SDS011;60419;48.880;18.036;2022-10-22T07:54:29;20.45;;;12.65;;
72427;SDS011;60419;48.880;18.036;2022-10-22T07:57:14;23.75;;;12.98;;
72427;SDS011;60419;48.880;18.036;2022-10-22T07:59:59;20.90;;;12.65;;
72427;SDS011;60419;48.880;18.036;2022-10-22T08:02:45;23.20;;;13.07;;
72427;SDS011;60419;48.880;18.036;2022-10-22T08:05:30;23.77;;;13.00;;
72427;SDS011;60419;48.880;18.036;2022-10-22T08:08:15;23.42;;;12.80;;
72427;SDS011;60419;48.880;18.036;2022-10-22T08:11:01;22.55;;;12.88;;
72427;SDS011;60419;48.880;18.036;2022-10-22T08:13:46;22.70;;;13.38;;
72427;SDS011;60419;48.880;18.036;2022-10-22T08:16:32;23.83;;;13.52;;
72427;SDS011;60419;48.880;18.036;2022-10-22T08:19:17;25.20;;;13.23;;
72427;SDS011;60419;48.880;18.036;2022-10-22T08:22:05;28.40;;;15.32;;
72427;SDS011;60419;48.880;18.036;2022-10-22T08:24:50;27.17;;;14.52;;
72427;SDS011;60419;48.880;18.036;2022-10-22T08:27:37;20.33;;;13.00;;
72427;SDS011;60419;48.880;18.036;2022-10-22T08:30:22;23.70;;;12.73;;
72427;SDS011;60419;48.880;18.036;2022-10-22T08:33:08;21.90;;;12.30;;
72427;SDS011;60419;48.880;18.036;2022-10-22T08:35:53;24.83;;;12.52;;
72427;SDS011;60419;48.880;18.036;2022-10-22T08:38:39;21.83;;;12.10;;
72427;SDS011;60419;48.880;18.036;2022-10-22T08:41:24;19.70;;;12.75;;
72427;SDS011;60419;48.880;18.036;2022-10-22T08:47:56;24.58;;;13.60;;
72427;SDS011;60419;48.880;18.036;2022-10-22T08:50:41;22.63;;;12.32;;
72427;SDS011;60419;48.880;18.036;2022-10-22T08:53:31;19.65;;;12.13;;
72427;SDS011;60419;48.880;18.036;2022-10-22T08:56:24;21.13;;;12.43;;
72427;SDS011;60419;48.880;18.036;2022-10-22T09:08:16;19.65;;;11.73;;
72427;SDS011;60419;48.880;18.036;2022-10-22T09:13:57;19.48;;;11.00;;
72427;SDS011;60419;48.880;18.036;2022-10-22T09:19:55;21.98;;;10.77;;
72427;SDS011;60419;48.880;18.036;2022-10-22T09:22:49;16.63;;;10.00;;
72427;SDS011;60419;48.880;18.036;2022-10-22T09:25:38;20.98;;;10.95;;
72427;SDS011;60419;48.880;18.036;2022-10-22T09:28:24;21.30;;;11.10;;
72427;SDS011;60419;48.880;18.036;2022-10-22T09:31:10;28.13;;;11.50;;
72427;SDS011;60419;48.880;18.036;2022-10-22T09:33:58;18.40;;;11.32;;
72427;SDS011;60419;48.880;18.036;2022-10-22T09:36:56;24.83;;;11.63;;
72427;SDS011;60419;48.880;18.036;2022-10-22T09:39:44;16.75;;;10.50;;
72427;SDS011;60419;48.880;18.036;2022-10-22T09:42:31;19.75;;;11.23;;
72427;SDS011;60419;48.880;18.036;2022-10-22T09:45:24;20.08;;;11.73;;
72427;SDS011;60419;48.880;18.036;2022-10-22T09:48:13;23.77;;;11.98;;
72427;SDS011;60419;48.880;18.036;2022-10-22T09:54:13;30.45;;;11.15;;
72427;SDS011;60419;48.880;18.036;2022-10-22T09:57:13;19.85;;;11.15;;
72427;SDS011;60419;48.880;18.036;2022-10-22T10:00:09;18.70;;;10.77;;
72427;SDS011;60419;48.880;18.036;2022-10-22T10:02:57;19.17;;;11.27;;
72427;SDS011;60419;48.880;18.036;2022-10-22T10:05:46;21.13;;;11.50;;
72427;SDS011;60419;48.880;18.036;2022-10-22T10:08:32;19.70;;;11.30;;
72427;SDS011;60419;48.880;18.036;2022-10-22T10:12:02;20.65;;;11.23;;
72427;SDS011;60419;48.880;18.036;2022-10-22T10:21:18;20.70;;;10.60;;
72427;SDS011;60419;48.880;18.036;2022-10-22T10:30:17;20.70;;;12.18;;
72427;SDS011;60419;48.880;18.036;2022-10-22T10:39:28;27.23;;;14.07;;
72427;SDS011;60419;48.880;18.036;2022-10-22T10:42:21;22.40;;;13.65;;
72427;SDS011;60419;48.880;18.036;2022-10-22T10:45:18;20.63;;;13.48;;
72427;SDS011;60419;48.880;18.036;2022-10-22T10:51:06;22.27;;;13.35;;
72427;SDS011;60419;48.880;18.036;2022-10-22T11:00:26;21.33;;;13.13;;
72427;SDS011;60419;48.880;18.036;2022-10-22T11:06:16;20.80;;;12.50;;
72427;SDS011;60419;48.880;18.036;2022-10-22T11:09:06;19.98;;;12.32;;
72427;SDS011;60419;48.880;18.036;2022-10-22T11:11:59;23.30;;;13.98;;
72427;SDS011;60419;48.880;18.036;2022-10-22T11:30:23;24.75;;;13.77;;
72427;SDS011;60419;48.880;18.036;2022-10-22T11:33:14;26.63;;;14.75;;
72427;SDS011;60419;48.880;18.036;2022-10-22T11:36:06;24.45;;;16.13;;
72427;SDS011;60419;48.880;18.036;2022-10-22T11:38:52;25.58;;;15.25;;
72427;SDS011;60419;48.880;18.036;2022-10-22T11:41:38;24.83;;;15.13;;
72427;SDS011;60419;48.880;18.036;2022-10-22T11:44:24;24.77;;;16.13;;
72427;SDS011;60419;48.880;18.036;2022-10-22T11:47:22;26.63;;;15.95;;
72427;SDS011;60419;48.880;18.036;2022-10-22T11:53:34;27.40;;;17.15;;
72427;SDS011;60419;48.880;18.036;2022-10-22T11:56:26;27.08;;;16.02;;
72427;SDS011;60419;48.880;18.036;2022-10-22T11:59:36;27.23;;;17.13;;
72427;SDS011;60419;48.880;18.036;2022-10-22T12:17:11;23.70;;;15.80;;
72427;SDS011;60419;48.880;18.036;2022-10-22T12:20:06;25.23;;;15.73;;
72427;SDS011;60419;48.880;18.036;2022-10-22T12:22:57;24.20;;;14.50;;
72427;SDS011;60419;48.880;18.036;2022-10-22T12:25:43;24.48;;;14.43;;
72427;SDS011;60419;48.880;18.036;2022-10-22T12:28:29;20.77;;;14.35;;
72427;SDS011;60419;48.880;18.036;2022-10-22T12:31:22;23.58;;;15.10;;
72427;SDS011;60419;48.880;18.036;2022-10-22T12:34:12;20.23;;;14.20;;
72427;SDS011;60419;48.880;18.036;2022-10-22T12:36:59;22.48;;;14.02;;
72427;SDS011;60419;48.880;18.036;2022-10-22T12:39:48;20.83;;;14.60;;
72427;SDS011;60419;48.880;18.036;2022-10-22T12:42:35;22.70;;;14.38;;
72427;SDS011;60419;48.880;18.036;2022-10-22T12:45:22;25.02;;;14.73;;
72427;SDS011;60419;48.880;18.036;2022-10-22T12:48:32;21.42;;;13.73;;
72427;SDS011;60419;48.880;18.036;2022-10-22T12:51:20;21.50;;;14.25;;
72427;SDS011;60419;48.880;18.036;2022-10-22T12:54:06;23.10;;;15.25;;
72427;SDS011;60419;48.880;18.036;2022-10-22T12:56:57;20.50;;;13.20;;
72427;SDS011;60419;48.880;18.036;2022-10-22T12:59:43;20.85;;;13.10;;
72427;SDS011;60419;48.880;18.036;2022-10-22T13:02:31;17.13;;;11.63;;
72427;SDS011;60419;48.880;18.036;2022-10-22T13:08:09;19.38;;;12.80;;
72427;SDS011;60419;48.880;18.036;2022-10-22T13:10:56;20.70;;;14.13;;
72427;SDS011;60419;48.880;18.036;2022-10-22T13:13:59;19.33;;;13.50;;
72427;SDS011;60419;48.880;18.036;2022-10-22T13:22:37;22.60;;;14.55;;
72427;SDS011;60419;48.880;18.036;2022-10-22T13:25:28;22.92;;;15.55;;
72427;SDS011;60419;48.880;18.036;2022-10-22T13:28:19;25.45;;;16.73;;
72427;SDS011;60419;48.880;18.036;2022-10-22T13:31:25;26.03;;;16.40;;
72427;SDS011;60419;48.880;18.036;2022-10-22T13:34:14;25.20;;;16.55;;
72427;SDS011;60419;48.880;18.036;2022-10-22T13:37:04;25.20;;;16.83;;
72427;SDS011;60419;48.880;18.036;2022-10-22T13:39:52;25.13;;;16.55;;
72427;SDS011;60419;48.880;18.036;2022-10-22T13:42:37;25.13;;;17.67;;
72427;SDS011;60419;48.880;18.036;2022-10-22T13:45:23;24.55;;;16.13;;
72427;SDS011;60419;48.880;18.036;2022-10-22T13:48:19;28.67;;;17.40;;
72427;SDS011;60419;48.880;18.036;2022-10-22T13:51:09;28.80;;;17.27;;
72427;SDS011;60419;48.880;18.036;2022-10-22T13:53:59;26.73;;;17.55;;
72427;SDS011;60419;48.880;18.036;2022-10-22T13:56:45;26.70;;;17.08;;
72427;SDS011;60419;48.880;18.036;2022-10-22T13:59:31;31.35;;;19.92;;
72427;SDS011;60419;48.880;18.036;2022-10-22T14:02:16;31.83;;;19.80;;
72427;SDS011;60419;48.880;18.036;2022-10-22T14:05:03;29.65;;;19.95;;
72427;SDS011;60419;48.880;18.036;2022-10-22T14:07:52;32.50;;;20.38;;
72427;SDS011;60419;48.880;18.036;2022-10-22T14:10:38;31.55;;;19.90;;
72427;SDS011;60419;48.880;18.036;2022-10-22T14:13:23;28.67;;;17.95;;
72427;SDS011;60419;48.880;18.036;2022-10-22T14:19:09;25.15;;;17.67;;
72427;SDS011;60419;48.880;18.036;2022-10-22T14:22:00;20.95;;;13.68;;
72427;SDS011;60419;48.880;18.036;2022-10-22T14:24:46;18.42;;;12.43;;
72427;SDS011;60419;48.880;18.036;2022-10-22T14:27:31;24.33;;;14.90;;
72427;SDS011;60419;48.880;18.036;2022-10-22T14:30:18;20.38;;;14.75;;
72427;SDS011;60419;48.880;18.036;2022-10-22T14:33:12;21.90;;;14.90;;
72427;SDS011;60419;48.880;18.036;2022-10-22T14:35:59;20.40;;;13.52;;
72427;SDS011;60419;48.880;18.036;2022-10-22T14:38:46;23.48;;;13.82;;
72427;SDS011;60419;48.880;18.036;2022-10-22T14:41:32;21.70;;;15.48;;
72427;SDS011;60419;48.880;18.036;2022-10-22T14:44:17;22.27;;;14.73;;
72427;SDS011;60419;48.880;18.036;2022-10-22T14:47:03;22.60;;;13.95;;
72427;SDS011;60419;48.880;18.036;2022-10-22T14:49:48;19.38;;;14.18;;
72427;SDS011;60419;48.880;18.036;2022-10-22T14:52:34;20.85;;;14.35;;
72427;SDS011;60419;48.880;18.036;2022-10-22T14:55:19;21.83;;;14.40;;
72427;SDS011;60419;48.880;18.036;2022-10-22T14:58:05;20.33;;;13.05;;
72427;SDS011;60419;48.880;18.036;2022-10-22T15:00:50;20.77;;;13.75;;
72427;SDS011;60419;48.880;18.036;2022-10-22T15:03:36;19.88;;;13.18;;
72427;SDS011;60419;48.880;18.036;2022-10-22T15:06:21;20.38;;;13.75;;
72427;SDS011;60419;48.880;18.036;2022-10-22T15:09:07;22.27;;;14.38;;
72427;SDS011;60419;48.880;18.036;2022-10-22T15:11:52;24.73;;;14.52;;
72427;SDS011;60419;48.880;18.036;2022-10-22T15:14:37;21.20;;;15.18;;
72427;SDS011;60419;48.880;18.036;2022-10-22T15:17:23;23.15;;;16.20;;
72427;SDS011;60419;48.880;18.036;2022-10-22T15:20:08;24.65;;;16.83;;
72427;SDS011;60419;48.880;18.036;2022-10-22T15:22:54;25.08;;;15.75;;
72427;SDS011;60419;48.880;18.036;2022-10-22T15:25:42;23.33;;;15.02;;
72427;SDS011;60419;48.880;18.036;2022-10-22T15:28:27;21.58;;;14.50;;
72427;SDS011;60419;48.880;18.036;2022-10-22T15:31:13;23.17;;;14.88;;
72427;SDS011;60419;48.880;18.036;2022-10-22T15:33:59;22.45;;;14.88;;
72427;SDS011;60419;48.880;18.036;2022-10-22T15:36:44;24.50;;;16.35;;
72427;SDS011;60419;48.880;18.036;2022-10-22T15:39:30;21.58;;;15.38;;
72427;SDS011;60419;48.880;18.036;2022-10-22T15:42:16;23.35;;;16.27;;
72427;SDS011;60419;48.880;18.036;2022-10-22T15:45:03;23.83;;;16.02;;
72427;SDS011;60419;48.880;18.036;2022-10-22T15:47:48;22.88;;;15.77;;
72427;SDS011;60419;48.880;18.036;2022-10-22T15:50:36;25.02;;;16.73;;
72427;SDS011;60419;48.880;18.036;2022-10-22T15:53:22;24.02;;;15.88;;
72427;SDS011;60419;48.880;18.036;2022-10-22T15:56:08;21.90;;;14.52;;
72427;SDS011;60419;48.880;18.036;2022-10-22T15:58:56;22.35;;;15.05;;
72427;SDS011;60419;48.880;18.036;2022-10-22T16:01:49;25.77;;;16.38;;
72427;SDS011;60419;48.880;18.036;2022-10-22T16:04:36;21.77;;;14.45;;
72427;SDS011;60419;48.880;18.036;2022-10-22T16:07:22;23.27;;;15.35;;
72427;SDS011;60419;48.880;18.036;2022-10-22T16:10:07;24.38;;;15.57;;
72427;SDS011;60419;48.880;18.036;2022-10-22T16:12:56;20.33;;;14.60;;
72427;SDS011;60419;48.880;18.036;2022-10-22T16:15:41;23.35;;;16.33;;
72427;SDS011;60419;48.880;18.036;2022-10-22T16:18:27;21.05;;;14.93;;
72427;SDS011;60419;48.880;18.036;2022-10-22T16:21:12;20.73;;;14.90;;
72427;SDS011;60419;48.880;18.036;2022-10-22T16:23:59;21.70;;;15.27;;
72427;SDS011;60419;48.880;18.036;2022-10-22T16:26:44;23.30;;;14.93;;
72427;SDS011;60419;48.880;18.036;2022-10-22T16:29:30;26.55;;;17.35;;
72427;SDS011;60419;48.880;18.036;2022-10-22T16:32:15;22.45;;;15.45;;
72427;SDS011;60419;48.880;18.036;2022-10-22T16:35:01;24.80;;;15.63;;
72427;SDS011;60419;48.880;18.036;2022-10-22T16:37:47;21.63;;;15.27;;
72427;SDS011;60419;48.880;18.036;2022-10-22T16:40:32;24.10;;;16.38;;
72427;SDS011;60419;48.880;18.036;2022-10-22T16:43:18;22.38;;;14.90;;
72427;SDS011;60419;48.880;18.036;2022-10-22T16:46:03;23.58;;;15.48;;
72427;SDS011;60419;48.880;18.036;2022-10-22T16:48:50;23.88;;;17.13;;
72427;SDS011;60419;48.880;18.036;2022-10-22T16:51:36;25.45;;;16.42;;
72427;SDS011;60419;48.880;18.036;2022-10-22T16:54:22;27.73;;;19.08;;
72427;SDS011;60419;48.880;18.036;2022-10-22T16:57:07;28.17;;;18.85;;
72427;SDS011;60419;48.880;18.036;2022-10-22T16:59:53;26.25;;;18.73;;
72427;SDS011;60419;48.880;18.036;2022-10-22T17:02:38;30.33;;;20.13;;
72427;SDS011;60419;48.880;18.036;2022-10-22T17:05:23;29.38;;;19.92;;
72427;SDS011;60419;48.880;18.036;2022-10-22T17:08:09;29.05;;;19.42;;
72427;SDS011;60419;48.880;18.036;2022-10-22T17:10:55;33.17;;;22.25;;
72427;SDS011;60419;48.880;18.036;2022-10-22T17:13:40;25.40;;;16.75;;
72427;SDS011;60419;48.880;18.036;2022-10-22T17:16:26;28.98;;;18.75;;
72427;SDS011;60419;48.880;18.036;2022-10-22T17:19:11;23.85;;;16.77;;
72427;SDS011;60419;48.880;18.036;2022-10-22T17:21:59;22.88;;;16.77;;
72427;SDS011;60419;48.880;18.036;2022-10-22T17:24:45;25.08;;;16.60;;
72427;SDS011;60419;48.880;18.036;2022-10-22T17:27:30;30.25;;;20.08;;
72427;SDS011;60419;48.880;18.036;2022-10-22T17:30:16;31.33;;;19.08;;
72427;SDS011;60419;48.880;18.036;2022-10-22T17:33:04;25.73;;;18.83;;
72427;SDS011;60419;48.880;18.036;2022-10-22T17:35:50;30.08;;;20.60;;
72427;SDS011;60419;48.880;18.036;2022-10-22T17:38:36;39.28;;;26.88;;
72427;SDS011;60419;48.880;18.036;2022-10-22T17:41:28;33.97;;;24.02;;
72427;SDS011;60419;48.880;18.036;2022-10-22T17:44:15;33.75;;;23.95;;
72427;SDS011;60419;48.880;18.036;2022-10-22T17:47:01;59.65;;;32.75;;
72427;SDS011;60419;48.880;18.036;2022-10-22T17:49:47;31.30;;;22.42;;
72427;SDS011;60419;48.880;18.036;2022-10-22T17:52:32;83.57;;;51.15;;
72427;SDS011;60419;48.880;18.036;2022-10-22T17:55:17;36.65;;;25.20;;
72427;SDS011;60419;48.880;18.036;2022-10-22T17:58:03;37.90;;;24.52;;
72427;SDS011;60419;48.880;18.036;2022-10-22T18:00:48;38.28;;;25.58;;
72427;SDS011;60419;48.880;18.036;2022-10-22T18:03:33;36.65;;;22.98;;
72427;SDS011;60419;48.880;18.036;2022-10-22T18:06:19;35.33;;;24.20;;
72427;SDS011;60419;48.880;18.036;2022-10-22T18:09:06;36.67;;;23.63;;
72427;SDS011;60419;48.880;18.036;2022-10-22T18:11:53;34.05;;;23.90;;
72427;SDS011;60419;48.880;18.036;2022-10-22T18:14:39;40.72;;;26.25;;
72427;SDS011;60419;48.880;18.036;2022-10-22T18:17:24;35.60;;;25.95;;
72427;SDS011;60419;48.880;18.036;2022-10-22T18:20:11;34.80;;;24.92;;
72427;SDS011;60419;48.880;18.036;2022-10-22T18:22:56;31.50;;;21.63;;